Latest Coastal Weather Observations for Port Lincoln Airport

IDS60701

Issued at 7:25 am CDT Saturday 1 November 2014 (issued every 10 minutes, with the page automatically refreshed every 10 minutes)

About coastal observations | Map of coastal stations | Coastal observations for SA | Marine services | Other Formats
Station Details ID: 018192 Name: PORT LINCOLN AWS Lat: -34.60 Lon: 135.88 Height: 8.5 m
Data from the previous 72 hours. | See also: Recent months at Port Lincoln Airport
Date/Time
CDT
Temp

°C
Wind Pressure Rain
since 9am
mm
Weather Cloud Vis
km
Sea
Height
m
Swell
Dir
 
Speed
knots
Gust
knots
hPa Trend Height
m
Period
s
Dir
01/07:00am 11.3 SW 9 11 1015.1 - 1.0 - - 10 - - - -
01/06:30am 11.4 WSW 10 13 1014.5 - 1.0 - Partly cloudy 10 - - - -
01/06:00am 11.9 SW 15 23 1014.0 - 1.0 - Cloudy 10 - - - -
01/05:55am 12.1 SSW 17 22 1014.0 - 1.0 - Partly cloudy 10 - - - -
01/05:30am 10.8 WSW 7 9 1013.4 - 1.0 - Partly cloudy 10 - - - -
01/05:00am 11.4 WSW 8 12 1013.0 - 1.0 - Partly cloudy 10 - - - -
01/04:30am 10.4 WSW 8 10 1012.6 - 1.0 - - 10 - - - -
01/04:00am 11.1 WSW 8 11 1012.2 - 1.0 - - 10 - - - -
01/03:30am 10.8 WSW 8 11 1011.8 - 1.0 - - 10 - - - -
01/03:00am 11.2 WSW 9 11 1011.5 - 1.0 - - 10 - - - -
01/02:30am 12.4 SW 13 20 1011.1 - 1.0 - - 10 - - - -
01/02:00am 13.3 SW 12 19 1010.8 - 1.0 - Partly cloudy 10 - - - -
01/01:30am 13.8 SW 11 14 1010.6 - 1.0 - Cloudy 10 - - - -
01/01:00am 13.9 SW 11 15 1010.4 - 1.0 - Partly cloudy 10 - - - -
01/12:30am 13.9 WSW 15 20 1010.1 - 1.0 - Partly cloudy 10 - - - -
01/12:00am 13.2 W 10 13 1009.8 - 1.0 - Mostly clear 10 - - - -
 
Date/Time
CDT
Temp

°C
Wind Pressure Rain
since 9am
mm
Weather Cloud Vis
km
Sea
Height
m
Swell
Dir
 
Speed
knots
Gust
knots
hPa Trend Height
m
Period
s
Dir
31/11:30pm 14.0 W 10 15 1009.5 - 1.0 - Partly cloudy 10 - - - -
31/11:00pm 14.0 W 9 14 1009.2 - 1.0 - Partly cloudy 10 - - - -
31/10:30pm 13.6 W 8 11 1008.7 - 1.0 - Partly cloudy 10 - - - -
31/10:00pm 12.8 W 6 8 1008.0 - 1.0 - Partly cloudy 10 - - - -
31/09:30pm 13.2 W 7 9 1007.7 - 1.0 - - 10 - - - -
31/09:00pm 13.7 WSW 7 10 1007.3 - 0.8 Recent precip. Cloudy 10 - - - -
31/08:30pm 14.2 W 8 11 1007.2 - 0.6 - Partly cloudy 10 - - - -
31/08:00pm 14.6 WSW 8 11 1006.7 - 0.6 - Partly cloudy 10 - - - -
31/07:30pm 14.9 SW 8 12 1006.3 - 0.6 - Partly cloudy 10 - - - -
31/07:00pm 15.4 SSW 11 17 1005.3 - 0.6 - Partly cloudy 10 - - - -
31/06:30pm 15.8 SW 9 18 1005.1 - 0.6 - Partly cloudy 10 - - - -
31/06:00pm 16.3 WSW 15 24 1005.2 - 0.0 - Cloudy 10 - - - -
31/05:45pm 17.7 WSW 16 26 1005.0 - 0.0 - Cloudy 10 - - - -
31/05:30pm 18.3 WSW 21 26 1005.1 - 0.0 - Partly cloudy 10 - - - -
31/05:13pm 19.1 SW 15 25 1003.8 - 0.0 - Partly cloudy 10 - - - -
31/05:00pm 19.3 SW 15 20 1004.0 - 0.0 - Partly cloudy 10 - - - -
31/04:31pm 19.8 SW 19 29 1003.3 - 0.0 - - 10 - - - -
31/04:30pm 19.7 SW 20 29 1003.2 - 0.0 - - 10 - - - -
31/04:00pm 22.5 WSW 22 29 1002.6 - 0.0 - - 10 - - - -
31/03:30pm 25.5 WSW 19 26 1002.3 - 0.0 - - 10 - - - -
31/03:00pm 27.0 W 16 24 1002.4 - 0.0 - Mostly cloudy 10 - - - -
31/02:30pm 27.2 WSW 14 19 1002.3 - 0.0 - - 10 - - - -
31/02:00pm 27.7 W 13 19 1002.9 - 0.0 - - 10 - - - -
31/01:30pm 27.6 WSW 15 22 1002.9 - 0.0 - Partly cloudy 10 - - - -
31/01:00pm 27.3 SW 14 21 1002.9 - 0.0 - - 10 - - - -
31/12:30pm 27.5 SW 15 19 1003.0 - 0.0 - - 10 - - - -
31/12:00pm 28.2 S 9 13 1003.2 - 0.0 - Cloudy 10 - - - -
31/11:30am 27.4 SW 10 14 1003.4 - 0.0 - - 10 - - - -
31/11:00am 28.8 W 10 16 1003.6 - 0.0 - - 10 - - - -
31/10:30am 28.7 WSW 13 16 1003.4 - 0.0 - - 10 - - - -
31/10:00am 28.9 WNW 12 18 1003.5 - 0.0 - - 10 - - - -
31/09:30am 28.1 WNW 12 18 1003.7 - 0.0 - - 10 - - - -
31/09:17am 27.6 NW 12 17 1003.8 - 0.0 - - 10 - - - -
31/09:00am 22.5 ENE 4 6 1003.6 - 0.0 - - 10 - - - -
31/08:30am 20.9 ENE 5 7 1003.9 - 0.0 - - 10 - - - -
31/08:00am 18.9 N 1 4 1003.9 - 0.0 - - 10 - - - -
31/07:30am 15.5 NW 4 4 1004.0 - 0.0 - - 10 - - - -
31/07:00am 12.7 N 4 5 1004.0 - 0.0 - - 10 - - - -
31/06:30am 12.7 NNW 4 5 1004.3 - 0.0 - - 10 - - - -
31/06:00am 14.6 CALM 0 0 1004.5 - 0.0 - Mostly clear 10 - - - -
31/05:30am 15.3 CALM 0 0 1004.9 - 0.0 - - 10 - - - -
31/05:00am 15.4 N 3 5 1005.2 - 0.0 - - 10 - - - -
31/04:30am 15.2 N 3 5 1005.6 - 0.0 - - 10 - - - -
31/04:00am 13.5 WNW 4 5 1006.0 - 0.0 - - 10 - - - -
31/03:30am 13.0 NNW 3 4 1006.3 - 0.0 - - 10 - - - -
31/03:00am 13.7 W 3 4 1006.8 - 0.0 - Cloudy 10 - - - -
31/02:30am 12.9 NNW 4 4 1007.1 - 0.0 - - 10 - - - -
31/02:00am 12.2 W 4 4 1008.1 - 0.0 - - 10 - - - -
31/01:30am 11.0 WNW 4 5 1008.6 - 0.0 - - 10 - - - -
31/01:00am 11.7 CALM 0 0 1009.0 - 0.0 - - 10 - - - -
31/12:30am 12.2 CALM 0 2 1009.3 - 0.0 - - 10 - - - -
31/12:00am 12.0 CALM 0 0 1009.7 - 0.0 - - 10 - - - -
 
Date/Time
CDT
Temp

°C
Wind Pressure Rain
since 9am
mm
Weather Cloud Vis
km
Sea
Height
m
Swell
Dir
 
Speed
knots
Gust
knots
hPa Trend Height
m
Period
s
Dir
30/11:30pm 11.9 N 2 4 1010.4 - 0.0 - - 10 - - - -
30/11:00pm 12.6 CALM 0 0 1010.4 - 0.0 - - 10 - - - -
30/10:30pm 13.0 NW 4 4 1010.9 - 0.0 - - 10 - - - -
30/10:00pm 13.5 CALM 0 0 1011.2 - 0.0 - - 10 - - - -
30/09:30pm 15.2 CALM 0 0 1011.1 - 0.0 - - 10 - - - -
30/09:00pm 16.2 CALM 0 0 1011.2 - 0.0 - Cloudy 10 - - - -
30/08:30pm 16.6 NE 5 5 1011.2 - 0.0 - - 10 - - - -
30/08:00pm 17.6 E 5 6 1011.2 - 0.0 - - 10 - - - -
30/07:30pm 18.3 E 6 8 1011.1 - 0.0 - - 10 - - - -
30/07:00pm 18.6 E 8 9 1011.1 - 0.0 - - 10 - - - -
30/06:30pm 18.9 ENE 8 10 1011.1 - 0.0 - - 10 - - - -
30/06:00pm 19.5 ENE 9 12 1011.1 - 0.0 - - 10 - - - -
30/05:30pm 19.3 E 9 11 1011.6 - 0.0 - - 10 - - - -
30/05:00pm 19.6 E 9 11 1011.9 - 0.0 - - 10 - - - -
30/04:30pm 19.7 E 11 13 1012.2 - 0.0 - - 10 - - - -
30/04:00pm 20.1 E 11 13 1012.5 - 0.0 - - 10 - - - -
30/03:30pm 20.4 E 9 12 1013.0 - 0.0 - - 10 - - - -
30/03:00pm 20.0 E 8 12 1013.7 - 0.0 - - 10 - - - -
30/02:30pm 19.9 E 8 11 1014.1 - 0.0 - - 10 - - - -
30/02:00pm 20.2 E 10 13 1014.3 - 0.0 - - 10 - - - -
30/01:30pm 19.4 E 10 13 1014.6 - 0.0 - - 10 - - - -
30/01:00pm 20.0 E 9 14 1014.9 - 0.0 - - 10 - - - -
30/12:30pm 20.0 E 13 16 1014.6 - 0.0 - - 10 - - - -
30/12:00pm 19.9 E 10 14 1015.4 - 0.0 - - 10 - - - -
30/11:30am 19.4 ENE 11 14 1015.5 - 0.0 - - 10 - - - -
30/11:00am 19.1 ENE 11 14 1015.8 - 0.0 - - 10 - - - -
30/10:30am 18.2 ENE 10 13 1016.0 - 0.0 - - 10 - - - -
30/10:00am 17.8 E 9 12 1016.3 - 0.0 - - 10 - - - -
30/09:30am 17.5 ENE 8 11 1016.5 - 0.0 - - 10 - - - -
30/09:00am 17.0 NE 6 8 1016.7 - 0.0 - - 10 - - - -
30/08:30am 15.8 NNE 1 4 1016.5 - 0.0 - - 10 - - - -
30/08:00am 12.9 NNW 2 4 1016.6 - 0.0 - - 10 - - - -
30/07:30am 10.3 NW 5 6 1016.5 - 0.0 - - 10 - - - -
30/07:00am 8.6 WNW 7 8 1016.2 - 0.0 - - 10 - - - -
30/06:30am 7.7 NW 7 8 1015.9 - 0.0 - - 10 - - - -
30/06:00am 8.0 NW 5 8 1015.9 - 0.0 - - 10 - - - -
30/05:30am 7.9 WNW 6 8 1015.5 - 0.0 - Partly cloudy 10 - - - -
30/05:00am 8.7 NNW 6 6 1015.6 - 0.0 - - 10 - - - -
30/04:30am 9.0 N 4 6 1016.2 - 0.0 - Partly cloudy 10 - - - -
30/04:00am 10.3 WSW 3 5 1016.7 - 0.0 - Cloudy 10 - - - -
30/03:30am 8.4 SW 5 7 1016.8 - 0.0 - Partly cloudy 10 - - - -
30/03:00am 7.6 W 6 6 1016.3 - 0.0 - - 10 - - - -
30/02:30am 7.7 W 5 6 1016.3 - 0.0 - - 10 - - - -
30/02:00am 8.2 NW 6 7 1016.3 - 0.0 - - 10 - - - -
30/01:30am 8.2 WNW 5 6 1017.0 - 0.0 - - 10 - - - -
30/01:00am 8.3 CALM 0 0 1017.2 - 0.0 - - 10 - - - -
30/12:30am 9.9 CALM 0 0 1017.5 - 0.0 - - 10 - - - -
30/12:00am 11.0 CALM 0 3 1018.0 - 0.0 - Mostly clear 10 - - - -
 
Date/Time
CDT
Temp

°C
Wind Pressure Rain
since 9am
mm
Weather Cloud Vis
km
Sea
Height
m
Swell
Dir
 
Speed
knots
Gust
knots
hPa Trend Height
m
Period
s
Dir
29/11:30pm 12.5 SSW 5 5 1018.4 - 0.0 - Partly cloudy 10 - - - -
29/11:00pm 12.4 SSW 2 5 1018.5 - 0.0 - Partly cloudy 10 - - - -
29/10:30pm 12.3 SW 2 6 1018.5 - 0.0 - - 10 - - - -
29/10:00pm 13.1 SW 5 6 1018.8 - 0.0 - - 10 - - - -
29/09:30pm 14.0 SW 6 7 1018.6 - 0.0 - - 10 - - - -
29/09:00pm 14.7 SSW 6 8 1018.4 - 0.0 - Mostly cloudy 10 - - - -
29/08:30pm 15.4 S 8 11 1018.0 - 0.0 - Partly cloudy 10 - - - -
29/08:00pm 15.5 S 9 12 1017.7 - 0.0 - Partly cloudy 10 - - - -
29/07:30pm 16.0 S 11 15 1017.4 - 0.0 - - 10 - - - -
29/07:00pm 16.6 S 14 17 1017.3 - 0.0 - - 10 - - - -
29/06:30pm 16.9 S 15 19 1017.2 - 0.0 - - 10 - - - -
29/06:00pm 17.2 SSE 15 19 1017.1 - 0.0 - Mostly cloudy 10 - - - -
29/05:30pm 17.9 SSE 14 17 1017.1 - 0.0 - - 10 - - - -
29/05:00pm 18.1 S 15 18 1017.0 - 0.0 - - 10 - - - -
29/04:30pm 19.0 SSE 11 16 1017.1 - 0.0 - - 10 - - - -
29/04:00pm 19.3 SE 10 13 1017.2 - 0.0 - - 10 - - - -
29/03:30pm 19.6 SE 10 14 1017.5 - 0.0 - - 10 - - - -
29/03:00pm 19.4 SSE 8 11 1017.6 - 0.0 - - 10 - - - -
29/02:30pm 20.5 SSE 8 11 1017.6 - 0.0 - - 10 - - - -
29/02:00pm 19.3 E 9 13 1017.7 - 0.0 - - 10 - - - -
29/01:30pm 19.5 ENE 11 14 1017.9 - 0.0 - - 10 - - - -
29/01:00pm 19.6 E 11 16 1018.3 - 0.0 - - 10 - - - -
29/12:30pm 19.1 E 12 16 1018.5 - 0.0 - - 10 - - - -
29/12:00pm 20.0 E 11 14 1018.6 - 0.0 - Mostly clear 10 - - - -
29/11:30am 19.6 ENE 11 14 1018.8 - 0.0 - - 10 - - - -
29/11:00am 18.6 E 9 12 1019.3 - 0.0 - Partly cloudy 10 - - - -
29/10:30am 18.8 E 7 11 1019.3 - 0.0 - Partly cloudy 10 - - - -
29/10:00am 17.0 N 4 8 1019.5 - 0.0 - Partly cloudy 10 - - - -
29/09:30am 17.3 WNW 8 11 1019.7 - 0.0 - Partly cloudy 10 - - - -
29/09:00am 16.2 NNW 1 6 1019.8 - 0.0 - Mostly cloudy 10 - - - -
29/08:30am 14.0 WNW 5 6 1020.0 - 0.0 - Cloudy 10 - - - -
29/08:00am 12.0 NW 6 7 1020.0 - 0.0 - Cloudy 10 - - - -
29/07:30am 10.7 NW 9 11 1020.1 - 0.0 - Partly cloudy 10 - - - -

Other Formats:

Comma delimited format used in spreadsheet applications
http://www.bom.gov.au/fwo/IDS60701/IDS60701.95661.axf

JavaScript Object Notation format (JSON) in row-major order
http://www.bom.gov.au/fwo/IDS60701/IDS60701.95661.json